sensor_id;sensor_type;location;lat;lon;timestamp;pressure;altitude;pressure_sealevel;temperature;humidity
50636;BME280;36598;46.054;11.130;2022-10-16T00:00:33;99607.75;;;17.14;76.52
50636;BME280;36598;46.054;11.130;2022-10-16T00:02:59;99610.09;;;17.03;76.32
50636;BME280;36598;46.054;11.130;2022-10-16T00:05:25;99614.59;;;17.00;76.41
50636;BME280;36598;46.054;11.130;2022-10-16T00:07:50;99612.31;;;17.08;76.62
50636;BME280;36598;46.054;11.130;2022-10-16T00:10:15;99607.97;;;16.94;76.94
50636;BME280;36598;46.054;11.130;2022-10-16T00:12:40;99613.25;;;16.80;77.24
50636;BME280;36598;46.054;11.130;2022-10-16T00:15:06;99611.81;;;16.88;76.85
50636;BME280;36598;46.054;11.130;2022-10-16T00:17:31;99612.47;;;16.92;76.55
50636;BME280;36598;46.054;11.130;2022-10-16T00:19:57;99613.16;;;16.96;76.44
50636;BME280;36598;46.054;11.130;2022-10-16T00:22:22;99613.94;;;16.84;76.93
50636;BME280;36598;46.054;11.130;2022-10-16T00:24:48;99616.72;;;16.84;77.26
50636;BME280;36598;46.054;11.130;2022-10-16T00:27:13;99622.03;;;16.65;77.91
50636;BME280;36598;46.054;11.130;2022-10-16T00:29:38;99618.16;;;16.75;77.44
50636;BME280;36598;46.054;11.130;2022-10-16T00:32:04;99620.50;;;16.77;77.85
50636;BME280;36598;46.054;11.130;2022-10-16T00:34:29;99616.25;;;16.72;77.52
50636;BME280;36598;46.054;11.130;2022-10-16T00:36:55;99631.84;;;16.57;77.98
50636;BME280;36598;46.054;11.130;2022-10-16T00:39:20;99630.53;;;16.62;77.72
50636;BME280;36598;46.054;11.130;2022-10-16T00:41:47;99630.66;;;16.58;78.63
50636;BME280;36598;46.054;11.130;2022-10-16T00:46:57;99636.91;;;16.62;77.67
50636;BME280;36598;46.054;11.130;2022-10-16T00:49:22;99636.81;;;16.11;80.38
50636;BME280;36598;46.054;11.130;2022-10-16T00:51:49;99636.19;;;16.33;79.53
50636;BME280;36598;46.054;11.130;2022-10-16T00:54:22;99642.22;;;16.44;78.85
50636;BME280;36598;46.054;11.130;2022-10-16T00:56:51;99643.22;;;16.37;78.38
50636;BME280;36598;46.054;11.130;2022-10-16T00:59:20;99641.13;;;16.54;77.68
50636;BME280;36598;46.054;11.130;2022-10-16T01:01:47;99642.56;;;16.46;78.44
50636;BME280;36598;46.054;11.130;2022-10-16T01:04:13;99641.44;;;16.43;78.41
50636;BME280;36598;46.054;11.130;2022-10-16T01:15:16;99641.53;;;16.40;78.18
50636;BME280;36598;46.054;11.130;2022-10-16T01:17:28;99653.19;;;16.51;77.56
50636;BME280;36598;46.054;11.130;2022-10-16T01:20:02;99641.13;;;16.54;77.73
50636;BME280;36598;46.054;11.130;2022-10-16T01:22:33;99646.50;;;16.61;77.36
50636;BME280;36598;46.054;11.130;2022-10-16T01:25:02;99643.28;;;16.63;76.92
50636;BME280;36598;46.054;11.130;2022-10-16T01:27:30;99641.81;;;16.58;77.69
50636;BME280;36598;46.054;11.130;2022-10-16T01:32:28;99648.19;;;16.59;77.72
50636;BME280;36598;46.054;11.130;2022-10-16T01:35:02;99646.75;;;16.67;77.22
50636;BME280;36598;46.054;11.130;2022-10-16T01:37:33;99647.50;;;16.55;78.15
50636;BME280;36598;46.054;11.130;2022-10-16T01:40:00;99651.75;;;16.59;77.95
50636;BME280;36598;46.054;11.130;2022-10-16T01:42:33;99645.63;;;16.64;77.95
50636;BME280;36598;46.054;11.130;2022-10-16T01:45:00;99652.94;;;16.33;79.68
50636;BME280;36598;46.054;11.130;2022-10-16T01:47:26;99655.94;;;16.25;79.38
50636;BME280;36598;46.054;11.130;2022-10-16T01:49:52;99647.56;;;16.25;79.80
50636;BME280;36598;46.054;11.130;2022-10-16T01:52:19;99645.56;;;16.39;79.13
50636;BME280;36598;46.054;11.130;2022-10-16T01:54:47;99650.75;;;16.11;80.19
50636;BME280;36598;46.054;11.130;2022-10-16T01:57:15;99651.38;;;16.32;79.28
50636;BME280;36598;46.054;11.130;2022-10-16T01:59:46;99659.03;;;16.15;79.66
50636;BME280;36598;46.054;11.130;2022-10-16T02:02:11;99663.88;;;16.40;78.37
50636;BME280;36598;46.054;11.130;2022-10-16T02:07:09;99654.50;;;16.34;79.01
50636;BME280;36598;46.054;11.130;2022-10-16T02:09:35;99655.31;;;16.47;78.39
50636;BME280;36598;46.054;11.130;2022-10-16T02:12:03;99659.22;;;16.37;78.75
50636;BME280;36598;46.054;11.130;2022-10-16T02:14:30;99661.44;;;16.42;78.13
50636;BME280;36598;46.054;11.130;2022-10-16T02:16:56;99663.03;;;16.56;77.80
50636;BME280;36598;46.054;11.130;2022-10-16T02:19:21;99664.03;;;16.49;77.60
50636;BME280;36598;46.054;11.130;2022-10-16T02:27:06;99662.44;;;16.35;79.22
50636;BME280;36598;46.054;11.130;2022-10-16T02:29:36;99660.28;;;16.26;79.53
50636;BME280;36598;46.054;11.130;2022-10-16T02:32:04;99660.00;;;16.37;79.02
50636;BME280;36598;46.054;11.130;2022-10-16T02:34:31;99656.53;;;16.46;78.87
50636;BME280;36598;46.054;11.130;2022-10-16T02:36:57;99655.09;;;16.41;79.15
50636;BME280;36598;46.054;11.130;2022-10-16T02:39:23;99665.94;;;16.10;80.58
50636;BME280;36598;46.054;11.130;2022-10-16T02:41:49;99658.50;;;16.20;80.25
50636;BME280;36598;46.054;11.130;2022-10-16T02:44:14;99660.38;;;16.23;79.99
50636;BME280;36598;46.054;11.130;2022-10-16T02:46:39;99673.31;;;16.17;79.94
50636;BME280;36598;46.054;11.130;2022-10-16T02:49:04;99665.53;;;16.24;79.58
50636;BME280;36598;46.054;11.130;2022-10-16T02:51:30;99675.28;;;16.33;79.35
50636;BME280;36598;46.054;11.130;2022-10-16T02:53:55;99667.53;;;15.95;80.75
50636;BME280;36598;46.054;11.130;2022-10-16T02:56:20;99665.78;;;15.72;81.58
50636;BME280;36598;46.054;11.130;2022-10-16T02:58:45;99671.63;;;16.07;80.47
50636;BME280;36598;46.054;11.130;2022-10-16T03:01:11;99679.91;;;16.23;79.31
50636;BME280;36598;46.054;11.130;2022-10-16T03:03:37;99674.75;;;16.09;79.91
50636;BME280;36598;46.054;11.130;2022-10-16T03:06:03;99675.38;;;16.00;80.15
50636;BME280;36598;46.054;11.130;2022-10-16T03:08:28;99676.22;;;16.13;79.67
50636;BME280;36598;46.054;11.130;2022-10-16T03:10:54;99678.81;;;16.20;79.04
50636;BME280;36598;46.054;11.130;2022-10-16T03:13:19;99682.63;;;15.97;79.64
50636;BME280;36598;46.054;11.130;2022-10-16T03:15:45;99686.50;;;16.16;79.29
50636;BME280;36598;46.054;11.130;2022-10-16T03:18:10;99684.38;;;15.91;79.84
50636;BME280;36598;46.054;11.130;2022-10-16T03:20:36;99680.72;;;15.94;80.00
50636;BME280;36598;46.054;11.130;2022-10-16T03:23:01;99687.53;;;15.93;79.93
50636;BME280;36598;46.054;11.130;2022-10-16T03:25:27;99679.50;;;15.95;80.00
50636;BME280;36598;46.054;11.130;2022-10-16T03:27:52;99686.94;;;15.86;80.15
50636;BME280;36598;46.054;11.130;2022-10-16T03:30:18;99681.59;;;15.91;80.21
50636;BME280;36598;46.054;11.130;2022-10-16T03:32:44;99682.38;;;15.92;80.03
50636;BME280;36598;46.054;11.130;2022-10-16T03:35:09;99682.72;;;15.94;80.07
50636;BME280;36598;46.054;11.130;2022-10-16T03:37:35;99682.78;;;16.07;79.36
50636;BME280;36598;46.054;11.130;2022-10-16T03:40:00;99687.88;;;15.79;80.47
50636;BME280;36598;46.054;11.130;2022-10-16T03:42:25;99686.06;;;15.89;80.14
50636;BME280;36598;46.054;11.130;2022-10-16T03:44:51;99689.19;;;15.58;81.37
50636;BME280;36598;46.054;11.130;2022-10-16T03:47:16;99687.53;;;15.28;82.33
50636;BME280;36598;46.054;11.130;2022-10-16T03:49:45;99688.94;;;15.36;82.62
50636;BME280;36598;46.054;11.130;2022-10-16T03:52:10;99687.47;;;15.64;81.17
50636;BME280;36598;46.054;11.130;2022-10-16T03:54:36;99689.56;;;15.76;80.44
50636;BME280;36598;46.054;11.130;2022-10-16T03:57:01;99690.94;;;15.85;80.34
50636;BME280;36598;46.054;11.130;2022-10-16T03:59:26;99692.34;;;15.76;80.55
50636;BME280;36598;46.054;11.130;2022-10-16T04:01:51;99690.59;;;15.83;79.96
50636;BME280;36598;46.054;11.130;2022-10-16T04:04:17;99686.94;;;15.69;80.08
50636;BME280;36598;46.054;11.130;2022-10-16T04:06:42;99694.09;;;15.70;80.31
50636;BME280;36598;46.054;11.130;2022-10-16T04:09:07;99694.53;;;15.69;80.58
50636;BME280;36598;46.054;11.130;2022-10-16T04:11:32;99699.50;;;15.77;79.92
50636;BME280;36598;46.054;11.130;2022-10-16T04:13:58;99695.03;;;15.64;80.55
50636;BME280;36598;46.054;11.130;2022-10-16T04:16:23;99699.66;;;15.54;81.05
50636;BME280;36598;46.054;11.130;2022-10-16T04:18:48;99702.97;;;15.49;81.88
50636;BME280;36598;46.054;11.130;2022-10-16T04:21:13;99700.25;;;15.62;80.34
50636;BME280;36598;46.054;11.130;2022-10-16T04:23:39;99698.00;;;15.57;81.07
50636;BME280;36598;46.054;11.130;2022-10-16T04:26:04;99707.50;;;15.43;81.66
50636;BME280;36598;46.054;11.130;2022-10-16T04:28:29;99711.84;;;15.44;81.35
50636;BME280;36598;46.054;11.130;2022-10-16T04:30:54;99705.41;;;15.47;81.62
50636;BME280;36598;46.054;11.130;2022-10-16T04:33:20;99713.88;;;15.43;81.89
50636;BME280;36598;46.054;11.130;2022-10-16T04:35:45;99714.25;;;15.09;83.69
50636;BME280;36598;46.054;11.130;2022-10-16T04:38:10;99712.69;;;15.24;83.08
50636;BME280;36598;46.054;11.130;2022-10-16T04:40:35;99714.38;;;15.38;82.79
50636;BME280;36598;46.054;11.130;2022-10-16T04:43:02;99718.97;;;15.28;83.01
50636;BME280;36598;46.054;11.130;2022-10-16T04:45:27;99720.13;;;15.47;82.36
50636;BME280;36598;46.054;11.130;2022-10-16T04:47:52;99719.78;;;15.45;82.68
50636;BME280;36598;46.054;11.130;2022-10-16T04:50:18;99725.44;;;15.58;81.71
50636;BME280;36598;46.054;11.130;2022-10-16T04:52:43;99717.19;;;15.55;82.15
50636;BME280;36598;46.054;11.130;2022-10-16T04:55:08;99721.38;;;15.46;82.14
50636;BME280;36598;46.054;11.130;2022-10-16T04:57:33;99728.41;;;15.35;83.29
50636;BME280;36598;46.054;11.130;2022-10-16T04:59:59;99723.63;;;15.35;82.84
50636;BME280;36598;46.054;11.130;2022-10-16T05:02:24;99727.72;;;15.31;83.69
50636;BME280;36598;46.054;11.130;2022-10-16T05:04:49;99728.75;;;15.37;83.44
50636;BME280;36598;46.054;11.130;2022-10-16T05:07:15;99734.09;;;15.47;82.73
50636;BME280;36598;46.054;11.130;2022-10-16T05:09:40;99725.81;;;15.60;82.12
50636;BME280;36598;46.054;11.130;2022-10-16T05:12:05;99727.66;;;15.50;82.18
50636;BME280;36598;46.054;11.130;2022-10-16T05:14:31;99731.13;;;15.38;81.80
50636;BME280;36598;46.054;11.130;2022-10-16T05:16:56;99733.03;;;15.58;81.00
50636;BME280;36598;46.054;11.130;2022-10-16T05:19:21;99733.81;;;15.58;81.24
50636;BME280;36598;46.054;11.130;2022-10-16T05:21:46;99732.16;;;15.61;80.95
50636;BME280;36598;46.054;11.130;2022-10-16T05:24:12;99736.19;;;15.43;82.16
50636;BME280;36598;46.054;11.130;2022-10-16T05:26:37;99737.13;;;15.37;82.57
50636;BME280;36598;46.054;11.130;2022-10-16T05:29:02;99742.03;;;15.65;81.12
50636;BME280;36598;46.054;11.130;2022-10-16T05:31:28;99741.69;;;15.63;80.99
50636;BME280;36598;46.054;11.130;2022-10-16T05:33:57;99748.00;;;15.67;80.42
50636;BME280;36598;46.054;11.130;2022-10-16T05:36:22;99746.00;;;15.32;82.21
50636;BME280;36598;46.054;11.130;2022-10-16T05:38:50;99760.50;;;15.43;81.33
50636;BME280;36598;46.054;11.130;2022-10-16T05:41:15;99752.91;;;15.43;81.95
50636;BME280;36598;46.054;11.130;2022-10-16T05:43:46;99756.78;;;15.13;82.88
50636;BME280;36598;46.054;11.130;2022-10-16T05:46:11;99760.94;;;15.05;83.48
50636;BME280;36598;46.054;11.130;2022-10-16T05:48:36;99764.03;;;15.27;82.42
50636;BME280;36598;46.054;11.130;2022-10-16T05:51:05;99761.69;;;15.25;82.49
50636;BME280;36598;46.054;11.130;2022-10-16T05:53:32;99773.47;;;15.49;81.35
50636;BME280;36598;46.054;11.130;2022-10-16T05:55:57;99771.38;;;15.53;81.32
50636;BME280;36598;46.054;11.130;2022-10-16T05:58:23;99770.63;;;15.69;80.71
50636;BME280;36598;46.054;11.130;2022-10-16T06:00:59;99772.97;;;15.71;80.22
50636;BME280;36598;46.054;11.130;2022-10-16T06:03:25;99775.69;;;15.74;80.48
50636;BME280;36598;46.054;11.130;2022-10-16T06:05:50;99778.72;;;15.80;80.15
50636;BME280;36598;46.054;11.130;2022-10-16T06:08:16;99771.78;;;15.72;80.51
50636;BME280;36598;46.054;11.130;2022-10-16T06:10:41;99779.31;;;15.55;81.61
50636;BME280;36598;46.054;11.130;2022-10-16T06:13:07;99785.13;;;15.81;80.71
50636;BME280;36598;46.054;11.130;2022-10-16T06:15:32;99784.84;;;15.75;80.77
50636;BME280;36598;46.054;11.130;2022-10-16T06:17:57;99786.59;;;15.85;80.66
50636;BME280;36598;46.054;11.130;2022-10-16T06:20:22;99793.81;;;15.83;80.92
50636;BME280;36598;46.054;11.130;2022-10-16T06:22:48;99796.69;;;15.95;79.67
50636;BME280;36598;46.054;11.130;2022-10-16T06:25:13;99807.25;;;16.04;79.94
50636;BME280;36598;46.054;11.130;2022-10-16T06:27:41;99807.25;;;15.88;80.08
50636;BME280;36598;46.054;11.130;2022-10-16T06:30:07;99806.88;;;16.18;78.83
50636;BME280;36598;46.054;11.130;2022-10-16T06:32:32;99818.03;;;16.18;78.52
50636;BME280;36598;46.054;11.130;2022-10-16T06:34:57;99822.31;;;16.23;78.57
50636;BME280;36598;46.054;11.130;2022-10-16T06:37:22;99825.81;;;16.27;78.47
50636;BME280;36598;46.054;11.130;2022-10-16T06:39:48;99824.00;;;16.20;78.74
50636;BME280;36598;46.054;11.130;2022-10-16T06:42:13;99824.84;;;16.34;78.07
50636;BME280;36598;46.054;11.130;2022-10-16T06:44:38;99827.88;;;16.39;78.43
50636;BME280;36598;46.054;11.130;2022-10-16T06:47:03;99832.56;;;16.59;77.39
50636;BME280;36598;46.054;11.130;2022-10-16T06:49:29;99833.88;;;16.54;76.86
50636;BME280;36598;46.054;11.130;2022-10-16T06:51:54;99839.94;;;16.65;76.29
50636;BME280;36598;46.054;11.130;2022-10-16T06:54:20;99837.25;;;16.78;76.01
50636;BME280;36598;46.054;11.130;2022-10-16T06:56:45;99844.41;;;16.79;76.29
50636;BME280;36598;46.054;11.130;2022-10-16T06:59:10;99841.19;;;16.81;76.07
50636;BME280;36598;46.054;11.130;2022-10-16T07:01:36;99852.38;;;16.64;76.17
50636;BME280;36598;46.054;11.130;2022-10-16T07:04:01;99853.09;;;16.97;75.14
50636;BME280;36598;46.054;11.130;2022-10-16T07:06:27;99859.72;;;17.16;74.42
50636;BME280;36598;46.054;11.130;2022-10-16T07:08:55;99862.69;;;16.96;75.27
50636;BME280;36598;46.054;11.130;2022-10-16T07:11:21;99859.22;;;16.92;75.61
50636;BME280;36598;46.054;11.130;2022-10-16T07:13:47;99858.66;;;17.26;74.33
50636;BME280;36598;46.054;11.130;2022-10-16T07:16:13;99862.53;;;17.16;74.43
50636;BME280;36598;46.054;11.130;2022-10-16T07:18:39;99866.28;;;17.39;73.51
50636;BME280;36598;46.054;11.130;2022-10-16T07:23:30;99866.94;;;17.43;72.95
50636;BME280;36598;46.054;11.130;2022-10-16T07:25:55;99866.22;;;17.81;71.53
50636;BME280;36598;46.054;11.130;2022-10-16T07:28:21;99872.38;;;18.01;70.55
50636;BME280;36598;46.054;11.130;2022-10-16T07:30:46;99875.16;;;18.01;70.15
50636;BME280;36598;46.054;11.130;2022-10-16T07:33:12;99878.50;;;18.21;69.53
50636;BME280;36598;46.054;11.130;2022-10-16T07:35:37;99878.81;;;18.23;70.03
50636;BME280;36598;46.054;11.130;2022-10-16T07:38:02;99875.88;;;18.40;68.83
50636;BME280;36598;46.054;11.130;2022-10-16T07:40:27;99889.69;;;18.34;68.65
50636;BME280;36598;46.054;11.130;2022-10-16T07:42:53;99885.75;;;18.32;68.50
50636;BME280;36598;46.054;11.130;2022-10-16T07:45:18;99891.06;;;18.17;69.48
50636;BME280;36598;46.054;11.130;2022-10-16T07:47:43;99895.28;;;18.47;68.44
50636;BME280;36598;46.054;11.130;2022-10-16T07:50:08;99904.13;;;18.33;68.70
50636;BME280;36598;46.054;11.130;2022-10-16T07:52:34;99913.63;;;18.48;68.42
50636;BME280;36598;46.054;11.130;2022-10-16T07:54:59;99905.94;;;18.39;68.56
50636;BME280;36598;46.054;11.130;2022-10-16T07:57:24;99911.72;;;18.45;67.86
50636;BME280;36598;46.054;11.130;2022-10-16T07:59:49;99910.03;;;18.60;66.95
50636;BME280;36598;46.054;11.130;2022-10-16T08:02:15;99911.94;;;18.63;67.46
50636;BME280;36598;46.054;11.130;2022-10-16T08:04:40;99915.41;;;19.02;66.43
50636;BME280;36598;46.054;11.130;2022-10-16T08:07:06;99914.78;;;19.20;65.48
50636;BME280;36598;46.054;11.130;2022-10-16T08:09:31;99913.53;;;19.21;65.54
50636;BME280;36598;46.054;11.130;2022-10-16T08:11:57;99911.69;;;19.49;64.07
50636;BME280;36598;46.054;11.130;2022-10-16T08:14:22;99913.72;;;19.70;63.36
50636;BME280;36598;46.054;11.130;2022-10-16T08:16:47;99911.16;;;19.94;62.19
50636;BME280;36598;46.054;11.130;2022-10-16T08:19:12;99905.34;;;19.80;62.59
50636;BME280;36598;46.054;11.130;2022-10-16T08:21:38;99905.97;;;19.84;61.87
50636;BME280;36598;46.054;11.130;2022-10-16T08:24:03;99904.47;;;20.01;61.31
50636;BME280;36598;46.054;11.130;2022-10-16T08:26:28;99904.75;;;20.34;60.34
50636;BME280;36598;46.054;11.130;2022-10-16T08:28:54;99907.00;;;20.58;59.00
50636;BME280;36598;46.054;11.130;2022-10-16T08:31:20;99906.38;;;20.72;58.14
50636;BME280;36598;46.054;11.130;2022-10-16T08:33:45;99907.47;;;21.02;57.19
50636;BME280;36598;46.054;11.130;2022-10-16T08:36:14;99904.50;;;21.06;57.62
50636;BME280;36598;46.054;11.130;2022-10-16T08:38:40;99913.41;;;21.50;56.59
50636;BME280;36598;46.054;11.130;2022-10-16T08:46:40;99904.19;;;25.58;45.69
50636;BME280;36598;46.054;11.130;2022-10-16T08:49:09;99913.91;;;26.52;44.02
50636;BME280;36598;46.054;11.130;2022-10-16T08:51:36;99911.53;;;24.78;46.68
50636;BME280;36598;46.054;11.130;2022-10-16T08:54:06;99908.66;;;24.37;47.90
50636;BME280;36598;46.054;11.130;2022-10-16T08:56:36;99902.69;;;25.37;45.83
50636;BME280;36598;46.054;11.130;2022-10-16T08:59:01;99899.41;;;28.67;39.16
50636;BME280;36598;46.054;11.130;2022-10-16T09:01:33;99892.53;;;31.16;33.96
50636;BME280;36598;46.054;11.130;2022-10-16T09:06:53;99891.06;;;32.52;30.93
50636;BME280;36598;46.054;11.130;2022-10-16T09:12:13;99889.47;;;31.14;32.45
50636;BME280;36598;46.054;11.130;2022-10-16T09:22:40;99867.03;;;37.32;24.40
50636;BME280;36598;46.054;11.130;2022-10-16T09:25:13;99861.44;;;37.01;24.99
50636;BME280;36598;46.054;11.130;2022-10-16T09:27:39;99864.31;;;37.34;24.28
50636;BME280;36598;46.054;11.130;2022-10-16T09:30:11;99863.38;;;36.91;24.24
50636;BME280;36598;46.054;11.130;2022-10-16T09:32:37;99864.81;;;37.15;24.04
50636;BME280;36598;46.054;11.130;2022-10-16T09:35:03;99867.22;;;36.30;24.73
50636;BME280;36598;46.054;11.130;2022-10-16T09:37:29;99866.78;;;37.45;23.26
50636;BME280;36598;46.054;11.130;2022-10-16T09:39:55;99856.84;;;38.06;22.49
50636;BME280;36598;46.054;11.130;2022-10-16T09:42:22;99865.94;;;38.20;22.24
50636;BME280;36598;46.054;11.130;2022-10-16T09:44:49;99863.97;;;38.47;22.43
50636;BME280;36598;46.054;11.130;2022-10-16T09:47:17;99865.66;;;38.68;22.02
50636;BME280;36598;46.054;11.130;2022-10-16T09:52:18;99856.25;;;39.48;20.37
50636;BME280;36598;46.054;11.130;2022-10-16T09:54:50;99857.78;;;39.86;20.31
50636;BME280;36598;46.054;11.130;2022-10-16T09:57:16;99851.22;;;39.76;20.32
50636;BME280;36598;46.054;11.130;2022-10-16T09:59:48;99849.31;;;40.95;19.04
50636;BME280;36598;46.054;11.130;2022-10-16T10:02:14;99847.78;;;40.94;19.03
50636;BME280;36598;46.054;11.130;2022-10-16T10:04:46;99850.91;;;39.18;20.50
50636;BME280;36598;46.054;11.130;2022-10-16T10:07:31;99849.59;;;39.01;20.69
50636;BME280;36598;46.054;11.130;2022-10-16T10:09:59;99844.44;;;39.64;19.94
50636;BME280;36598;46.054;11.130;2022-10-16T10:12:27;99849.41;;;38.20;21.06
50636;BME280;36598;46.054;11.130;2022-10-16T10:14:56;99838.81;;;36.82;22.70
50636;BME280;36598;46.054;11.130;2022-10-16T10:17:26;99840.19;;;38.83;19.95
50636;BME280;36598;46.054;11.130;2022-10-16T10:19:53;99832.09;;;36.24;23.03
50636;BME280;36598;46.054;11.130;2022-10-16T10:32:48;99823.53;;;36.57;23.02
50636;BME280;36598;46.054;11.130;2022-10-16T10:45:37;99804.94;;;36.50;23.14
50636;BME280;36598;46.054;11.130;2022-10-16T10:53:42;99797.78;;;37.32;22.64
50636;BME280;36598;46.054;11.130;2022-10-16T11:01:35;99793.78;;;36.87;22.46
50636;BME280;36598;46.054;11.130;2022-10-16T11:06:31;99791.44;;;35.74;24.11
50636;BME280;36598;46.054;11.130;2022-10-16T11:11:47;99784.00;;;37.90;21.94
50636;BME280;36598;46.054;11.130;2022-10-16T11:14:19;99775.34;;;36.57;24.14
50636;BME280;36598;46.054;11.130;2022-10-16T11:21:56;99769.47;;;33.99;26.16
50636;BME280;36598;46.054;11.130;2022-10-16T11:24:32;99771.16;;;33.95;26.05
50636;BME280;36598;46.054;11.130;2022-10-16T11:27:01;99764.19;;;35.75;24.12
50636;BME280;36598;46.054;11.130;2022-10-16T11:29:29;99760.34;;;36.03;24.15
50636;BME280;36598;46.054;11.130;2022-10-16T11:32:00;99764.66;;;36.75;23.51
50636;BME280;36598;46.054;11.130;2022-10-16T11:34:32;99764.41;;;35.54;24.91
50636;BME280;36598;46.054;11.130;2022-10-16T11:37:04;99752.97;;;34.80;25.96
50636;BME280;36598;46.054;11.130;2022-10-16T11:39:30;99750.91;;;34.00;26.55
50636;BME280;36598;46.054;11.130;2022-10-16T11:49:41;99742.13;;;30.62;30.88
50636;BME280;36598;46.054;11.130;2022-10-16T11:57:19;99727.00;;;30.67;31.28
50636;BME280;36598;46.054;11.130;2022-10-16T12:04:42;99721.41;;;30.00;31.55
50636;BME280;36598;46.054;11.130;2022-10-16T12:07:24;99730.63;;;30.68;30.03
50636;BME280;36598;46.054;11.130;2022-10-16T12:09:52;99725.00;;;30.62;30.43
50636;BME280;36598;46.054;11.130;2022-10-16T12:17:40;99725.72;;;29.03;31.96
50636;BME280;36598;46.054;11.130;2022-10-16T12:20:18;99719.34;;;28.85;31.64
50636;BME280;36598;46.054;11.130;2022-10-16T12:25:23;99709.19;;;28.95;32.09
50636;BME280;36598;46.054;11.130;2022-10-16T12:28:02;99708.44;;;29.25;33.06
50636;BME280;36598;46.054;11.130;2022-10-16T12:30:29;99714.47;;;28.39;33.15
50636;BME280;36598;46.054;11.130;2022-10-16T12:32:56;99715.41;;;28.00;33.13
50636;BME280;36598;46.054;11.130;2022-10-16T12:35:23;99714.38;;;28.03;33.91
50636;BME280;36598;46.054;11.130;2022-10-16T12:37:49;99719.13;;;27.61;32.19
50636;BME280;36598;46.054;11.130;2022-10-16T12:40:31;99716.88;;;27.15;32.23
50636;BME280;36598;46.054;11.130;2022-10-16T12:42:57;99719.97;;;26.01;33.90
50636;BME280;36598;46.054;11.130;2022-10-16T12:47:51;99724.69;;;25.67;35.82
50636;BME280;36598;46.054;11.130;2022-10-16T12:50:37;99717.97;;;26.18;36.68
50636;BME280;36598;46.054;11.130;2022-10-16T12:53:03;99715.75;;;26.51;35.09
50636;BME280;36598;46.054;11.130;2022-10-16T12:55:42;99714.78;;;25.94;34.59
50636;BME280;36598;46.054;11.130;2022-10-16T13:00:56;99716.91;;;26.05;33.59
50636;BME280;36598;46.054;11.130;2022-10-16T13:06:15;99720.31;;;25.71;33.95
50636;BME280;36598;46.054;11.130;2022-10-16T13:11:52;99723.59;;;25.21;35.50
50636;BME280;36598;46.054;11.130;2022-10-16T13:19:29;99726.41;;;25.53;36.58
50636;BME280;36598;46.054;11.130;2022-10-16T13:24:49;99731.06;;;25.19;38.82
50636;BME280;36598;46.054;11.130;2022-10-16T13:27:23;99733.41;;;25.63;38.27
50636;BME280;36598;46.054;11.130;2022-10-16T13:29:54;99737.31;;;25.71;37.75
50636;BME280;36598;46.054;11.130;2022-10-16T13:32:25;99731.84;;;25.57;38.26
50636;BME280;36598;46.054;11.130;2022-10-16T13:34:51;99735.84;;;25.82;37.67
50636;BME280;36598;46.054;11.130;2022-10-16T13:37:18;99740.59;;;26.02;37.64
50636;BME280;36598;46.054;11.130;2022-10-16T13:39:44;99737.44;;;25.88;38.83
50636;BME280;36598;46.054;11.130;2022-10-16T13:42:10;99737.84;;;25.70;36.63
50636;BME280;36598;46.054;11.130;2022-10-16T13:44:44;99739.19;;;25.43;37.84
50636;BME280;36598;46.054;11.130;2022-10-16T13:47:29;99739.50;;;25.13;37.76
50636;BME280;36598;46.054;11.130;2022-10-16T13:50:10;99742.69;;;25.27;38.47
50636;BME280;36598;46.054;11.130;2022-10-16T13:52:37;99738.34;;;25.05;38.60
50636;BME280;36598;46.054;11.130;2022-10-16T13:55:03;99747.31;;;24.98;39.42
50636;BME280;36598;46.054;11.130;2022-10-16T13:57:29;99749.31;;;24.92;39.51
50636;BME280;36598;46.054;11.130;2022-10-16T13:59:54;99741.69;;;24.72;40.30
50636;BME280;36598;46.054;11.130;2022-10-16T14:02:22;99744.75;;;24.28;41.41
50636;BME280;36598;46.054;11.130;2022-10-16T14:04:50;99747.03;;;24.44;41.44
50636;BME280;36598;46.054;11.130;2022-10-16T14:07:25;99741.22;;;24.53;41.64
50636;BME280;36598;46.054;11.130;2022-10-16T14:09:52;99747.53;;;24.22;42.11
50636;BME280;36598;46.054;11.130;2022-10-16T14:12:18;99752.28;;;23.90;42.43
50636;BME280;36598;46.054;11.130;2022-10-16T14:14:44;99746.53;;;23.84;42.51
50636;BME280;36598;46.054;11.130;2022-10-16T14:17:29;99751.81;;;23.77;42.56
50636;BME280;36598;46.054;11.130;2022-10-16T14:19:56;99754.44;;;24.01;42.56
50636;BME280;36598;46.054;11.130;2022-10-16T14:24:48;99752.13;;;23.99;42.54
50636;BME280;36598;46.054;11.130;2022-10-16T14:27:35;99752.19;;;24.05;42.14
50636;BME280;36598;46.054;11.130;2022-10-16T14:30:32;99754.22;;;23.84;42.71
50636;BME280;36598;46.054;11.130;2022-10-16T14:32:57;99754.66;;;23.97;42.85
50636;BME280;36598;46.054;11.130;2022-10-16T14:35:25;99759.81;;;23.63;43.77
50636;BME280;36598;46.054;11.130;2022-10-16T14:37:51;99763.75;;;23.51;44.13
50636;BME280;36598;46.054;11.130;2022-10-16T14:40:17;99761.19;;;23.18;44.93
50636;BME280;36598;46.054;11.130;2022-10-16T14:42:43;99763.41;;;22.99;45.47
50636;BME280;36598;46.054;11.130;2022-10-16T14:45:09;99765.75;;;23.15;45.42
50636;BME280;36598;46.054;11.130;2022-10-16T14:47:35;99777.50;;;23.29;44.75
50636;BME280;36598;46.054;11.130;2022-10-16T14:50:02;99770.78;;;23.41;44.83
50636;BME280;36598;46.054;11.130;2022-10-16T14:52:27;99769.22;;;23.40;45.05
50636;BME280;36598;46.054;11.130;2022-10-16T14:54:52;99764.34;;;23.40;45.88
50636;BME280;36598;46.054;11.130;2022-10-16T14:57:22;99765.06;;;23.20;46.60
50636;BME280;36598;46.054;11.130;2022-10-16T14:59:48;99768.75;;;23.27;47.33
50636;BME280;36598;46.054;11.130;2022-10-16T15:04:58;99774.69;;;22.84;47.89
50636;BME280;36598;46.054;11.130;2022-10-16T15:07:27;99777.47;;;22.69;49.02